createdAt,value
2022-12-16T00:01:24.805Z,97086.13
2022-12-16T00:03:57.700Z,97084.06
2022-12-16T00:06:29.310Z,97095.94
2022-12-16T00:08:56.877Z,97089.81
2022-12-16T00:11:24.064Z,97090.47
2022-12-16T00:13:51.079Z,97098.63
2022-12-16T00:16:21.150Z,97095.94
2022-12-16T00:18:48.649Z,97096.22
2022-12-16T00:21:18.610Z,97098.34
2022-12-16T00:23:45.919Z,97099.25
2022-12-16T00:26:13.791Z,97100.47
2022-12-16T00:28:43.485Z,97092.94
2022-12-16T00:31:10.476Z,97097.78
2022-12-16T00:33:37.463Z,97090.69
2022-12-16T00:36:04.852Z,97092.47
2022-12-16T00:38:31.796Z,97087.34
2022-12-16T00:40:58.839Z,97090.09
2022-12-16T00:43:26.145Z,97092.63
2022-12-16T00:45:53.118Z,97095.91
2022-12-16T00:48:23.505Z,97089.63
2022-12-16T00:50:55.258Z,97095.16
2022-12-16T00:53:24.675Z,97093.56
2022-12-16T00:56:01.288Z,97102.94
2022-12-16T00:58:28.244Z,97102.19
2022-12-16T01:00:55.236Z,97105.78
2022-12-16T01:03:22.414Z,97114.50
2022-12-16T01:05:49.609Z,97116.06
2022-12-16T01:08:16.767Z,97119.22
2022-12-16T01:10:50.949Z,97111.88
2022-12-16T01:13:18.237Z,97117.75
2022-12-16T01:15:45.158Z,97120.56
2022-12-16T01:18:12.172Z,97129.94
2022-12-16T01:20:39.322Z,97136.31
2022-12-16T01:23:06.376Z,97131.88
2022-12-16T01:25:33.346Z,97133.53
2022-12-16T01:28:00.283Z,97137.91
2022-12-16T01:30:27.323Z,97142.31
2022-12-16T01:32:54.251Z,97145.63
2022-12-16T01:35:51.579Z,97137.72
2022-12-16T01:38:08.937Z,97139.78
2022-12-16T01:40:35.898Z,97142.22
2022-12-16T01:43:10.525Z,97137.72
2022-12-16T01:45:37.836Z,97130.69
2022-12-16T01:48:51.744Z,97129.19
2022-12-16T01:51:50.650Z,97132.59
2022-12-16T01:54:26.507Z,97136.66
2022-12-16T01:57:04.022Z,97149.59
2022-12-16T01:59:34.307Z,97149.34
2022-12-16T02:02:02.958Z,97148.09
2022-12-16T02:04:30.091Z,97151.50
2022-12-16T02:06:58.357Z,97156.38
2022-12-16T02:09:25.322Z,97161.06
2022-12-16T02:12:04.106Z,97164.84
2022-12-16T02:14:45.653Z,97168.50
2022-12-16T02:18:14.460Z,97170.25
2022-12-16T02:21:05.233Z,97176.13
2022-12-16T02:24:25.709Z,97168.97
2022-12-16T02:27:55.056Z,97175.56
2022-12-16T02:30:48.064Z,97173.50
2022-12-16T02:34:16.531Z,97178.44
2022-12-16T02:36:52.823Z,97176.16
2022-12-16T02:39:32.336Z,97182.19
2022-12-16T02:42:30.176Z,97167.66
2022-12-16T02:45:18.753Z,97166.53
2022-12-16T02:47:46.704Z,97168.78
2022-12-16T02:50:26.736Z,97165.97
2022-12-16T02:52:55.829Z,97157.72
2022-12-16T02:55:35.900Z,97170.78
2022-12-16T02:58:36.723Z,97169.84
2022-12-16T03:01:19.750Z,97168.47
2022-12-16T03:04:13.712Z,97180.59
2022-12-16T03:06:44.901Z,97174.78
2022-12-16T03:09:14.109Z,97174.16
2022-12-16T03:11:43.373Z,97176.88
2022-12-16T03:14:16.135Z,97175.19
2022-12-16T03:16:45.411Z,97186.31
2022-12-16T03:19:12.943Z,97186.09
2022-12-16T03:22:10.796Z,97188.09
2022-12-16T03:24:39.470Z,97190.69
2022-12-16T03:27:25.764Z,97196.63
2022-12-16T03:30:06.725Z,97194.69
2022-12-16T03:32:53.247Z,97196.63
2022-12-16T03:35:27.241Z,97196.69
2022-12-16T03:37:57.337Z,97197.81
2022-12-16T03:40:27.693Z,97194.78
2022-12-16T03:42:57.092Z,97203.63
2022-12-16T03:45:29.048Z,97204.97
2022-12-16T03:47:59.440Z,97217.88
2022-12-16T03:50:35.564Z,97225.34
2022-12-16T03:53:03.234Z,97229.00
2022-12-16T03:55:30.566Z,97228.78
2022-12-16T03:57:57.819Z,97236.56
2022-12-16T04:00:25.676Z,97229.38
2022-12-16T04:02:53.285Z,97224.59
2022-12-16T04:05:20.327Z,97234.19
2022-12-16T04:07:47.317Z,97240.75
2022-12-16T04:10:14.283Z,97241.97
2022-12-16T04:12:59.541Z,97245.16
2022-12-16T04:15:46.407Z,97251.50
2022-12-16T04:18:35.732Z,97245.28
2022-12-16T04:21:22.584Z,97251.44
2022-12-16T04:24:12.185Z,97258.47
2022-12-16T04:26:57.845Z,97260.88
2022-12-16T04:29:24.908Z,97262.72
2022-12-16T04:31:53.016Z,97255.72
2022-12-16T04:34:29.156Z,97260.28
2022-12-16T04:37:20.799Z,97261.72
2022-12-16T04:40:23.474Z,97263.19
2022-12-16T04:43:09.183Z,97270.38
2022-12-16T04:45:54.813Z,97266.25
2022-12-16T04:48:40.263Z,97277.66
2022-12-16T04:51:25.528Z,97286.06
2022-12-16T04:54:10.783Z,97279.50
2022-12-16T04:56:56.197Z,97283.41
2022-12-16T04:59:41.588Z,97287.81
2022-12-16T05:02:27.364Z,97292.22
2022-12-16T05:05:13.285Z,97294.06
2022-12-16T05:07:58.587Z,97298.94
2022-12-16T05:10:43.932Z,97297.97
2022-12-16T05:13:29.410Z,97300.44
2022-12-16T05:16:14.995Z,97297.50
2022-12-16T05:19:00.444Z,97305.19
2022-12-16T05:21:46.016Z,97305.53
2022-12-16T05:24:31.400Z,97312.38
2022-12-16T05:27:16.645Z,97316.88
2022-12-16T05:30:02.155Z,97315.88
2022-12-16T05:32:47.358Z,97316.56
2022-12-16T05:35:33.222Z,97316.09
2022-12-16T05:38:18.582Z,97326.47
2022-12-16T05:41:03.815Z,97334.16
2022-12-16T05:43:49.182Z,97338.59
2022-12-16T05:46:34.746Z,97339.13
2022-12-16T05:49:28.102Z,97351.34
2022-12-16T05:52:13.502Z,97351.41
2022-12-16T05:54:58.852Z,97349.44
2022-12-16T05:57:44.138Z,97357.28
2022-12-16T06:00:30.646Z,97364.44
2022-12-16T06:03:15.970Z,97367.44
2022-12-16T06:06:01.461Z,97370.19
2022-12-16T06:08:46.997Z,97378.78
2022-12-16T06:11:32.779Z,97377.28
2022-12-16T06:14:18.331Z,97393.03
2022-12-16T06:17:03.454Z,97388.38
2022-12-16T06:19:48.791Z,97399.06
2022-12-16T06:22:34.525Z,97414.00
2022-12-16T06:25:20.223Z,97427.00
2022-12-16T06:28:12.979Z,97410.69
2022-12-16T06:30:58.597Z,97418.41
2022-12-16T06:33:43.913Z,97417.94
2022-12-16T06:36:29.720Z,97432.19
2022-12-16T06:39:15.094Z,97434.69
2022-12-16T06:42:00.503Z,97445.03
2022-12-16T06:44:46.362Z,97437.03
2022-12-16T06:47:31.617Z,97447.00
2022-12-16T06:50:16.874Z,97460.03
2022-12-16T06:53:02.403Z,97457.63
2022-12-16T06:55:48.696Z,97469.75
2022-12-16T06:58:34.302Z,97481.88
2022-12-16T07:01:20.047Z,97479.81
2022-12-16T07:04:05.822Z,97487.69
2022-12-16T07:06:51.259Z,97490.34
2022-12-16T07:09:36.720Z,97498.75
2022-12-16T07:12:22.333Z,97504.13
2022-12-16T07:15:08.067Z,97501.53
2022-12-16T07:17:53.276Z,97514.06
2022-12-16T07:20:38.649Z,97522.59
2022-12-16T07:23:24.196Z,97524.22
2022-12-16T07:26:09.454Z,97525.16
2022-12-16T07:28:54.755Z,97526.56
2022-12-16T07:31:40.504Z,97528.63
2022-12-16T07:34:25.907Z,97528.28
2022-12-16T07:37:11.275Z,97531.94
2022-12-16T07:39:56.814Z,97535.47
2022-12-16T07:42:42.309Z,97538.09
2022-12-16T07:45:29.160Z,97548.38
2022-12-16T07:48:15.194Z,97550.59
2022-12-16T07:51:00.972Z,97553.19
2022-12-16T07:53:46.459Z,97568.13
2022-12-16T07:56:32.587Z,97564.84
2022-12-16T07:59:18.047Z,97570.44
2022-12-16T08:02:03.661Z,97573.19
2022-12-16T08:04:48.989Z,97571.28
2022-12-16T08:07:34.271Z,97584.81
2022-12-16T08:10:19.644Z,97595.53
2022-12-16T08:13:05.010Z,97592.22
2022-12-16T08:15:50.457Z,97587.56
2022-12-16T08:18:35.817Z,97595.00
2022-12-16T08:21:21.320Z,97602.06
2022-12-16T08:24:06.613Z,97602.22
2022-12-16T08:26:51.936Z,97604.19
2022-12-16T08:29:45.758Z,97615.06
2022-12-16T08:32:33.468Z,97623.63
2022-12-16T08:35:19.299Z,97615.03
2022-12-16T08:38:10.525Z,97626.94
2022-12-16T08:41:00.863Z,97634.31
2022-12-16T08:43:48.716Z,97640.75
2022-12-16T08:46:34.402Z,97644.84
2022-12-16T08:49:19.688Z,97650.50
2022-12-16T08:52:05.073Z,97643.34
2022-12-16T08:54:50.861Z,97655.44
2022-12-16T08:57:53.394Z,97653.00
2022-12-16T09:00:40.324Z,97662.66
2022-12-16T09:03:25.833Z,97667.38
2022-12-16T09:06:17.212Z,97679.38
2022-12-16T09:09:02.729Z,97680.16
2022-12-16T09:11:48.095Z,97685.63
2022-12-16T09:14:53.295Z,97682.34
2022-12-16T09:17:39.139Z,97688.56
2022-12-16T09:20:25.551Z,97700.00
2022-12-16T09:23:11.045Z,97699.72
2022-12-16T09:25:56.430Z,97709.56
2022-12-16T09:28:41.829Z,97701.13
2022-12-16T09:31:27.259Z,97700.56
2022-12-16T09:34:12.757Z,97703.84
2022-12-16T09:36:58.183Z,97713.41
2022-12-16T09:39:43.717Z,97706.75
2022-12-16T09:42:32.032Z,97706.22
2022-12-16T09:45:24.527Z,97713.06
2022-12-16T09:48:40.521Z,97710.41
2022-12-16T09:51:28.403Z,97709.03
2022-12-16T09:54:15.005Z,97717.94
2022-12-16T09:57:02.503Z,97729.03
2022-12-16T09:59:58.266Z,97735.81
2022-12-16T10:02:44.563Z,97726.03
2022-12-16T10:05:38.103Z,97732.59
2022-12-16T10:08:58.596Z,97735.25
2022-12-16T10:12:05.493Z,97736.97
2022-12-16T10:15:03.811Z,97738.78
2022-12-16T10:17:49.144Z,97738.84
2022-12-16T10:21:04.274Z,97743.38
2022-12-16T10:24:10.671Z,97748.69
2022-12-16T10:27:23.944Z,97749.88
2022-12-16T10:30:09.428Z,97749.97
2022-12-16T10:33:09.066Z,97752.97
2022-12-16T10:36:11.849Z,97742.78
2022-12-16T10:39:23.905Z,97738.75
2022-12-16T10:42:12.743Z,97741.97
2022-12-16T10:45:08.672Z,97737.03
2022-12-16T10:47:54.593Z,97753.41
2022-12-16T10:50:40.777Z,97748.75
2022-12-16T10:53:37.198Z,97742.69
2022-12-16T10:57:12.085Z,97754.63
2022-12-16T10:59:59.776Z,97750.59
2022-12-16T11:02:47.629Z,97756.41
2022-12-16T11:05:52.958Z,97769.63
2022-12-16T11:08:51.377Z,97765.81
2022-12-16T11:11:49.071Z,97769.56
2022-12-16T11:17:55.947Z,97773.66
2022-12-16T11:20:45.256Z,97773.22
2022-12-16T11:23:42.365Z,97781.44
2022-12-16T11:26:37.327Z,97780.47
2022-12-16T11:29:37.106Z,97782.34
2022-12-16T11:32:38.947Z,97770.91
2022-12-16T11:35:34.999Z,97782.75
2022-12-16T11:38:23.093Z,97790.03
2022-12-16T11:41:16.478Z,97788.09
2022-12-16T11:44:07.179Z,97792.47
2022-12-16T11:46:53.063Z,97791.28
2022-12-16T11:49:51.362Z,97791.22
2022-12-16T11:52:40.026Z,97790.28
2022-12-16T11:58:58.478Z,97792.59
2022-12-16T12:02:07.529Z,97798.03
2022-12-16T12:04:54.524Z,97808.38
2022-12-16T12:08:21.342Z,97811.63
2022-12-16T12:11:41.727Z,97819.38
2022-12-16T12:14:53.968Z,97816.66
2022-12-16T12:17:50.530Z,97824.25
2022-12-16T12:21:20.166Z,97822.09
2022-12-16T12:24:36.878Z,97820.69
2022-12-16T12:27:35.295Z,97830.47
2022-12-16T12:30:35.134Z,97839.22
2022-12-16T12:33:53.924Z,97843.16
2022-12-16T12:37:10.727Z,97841.97
2022-12-16T12:40:10.652Z,97851.72
2022-12-16T12:43:06.253Z,97853.59
2022-12-16T12:46:19.600Z,97851.16
2022-12-16T12:49:32.403Z,97856.22
2022-12-16T12:52:51.829Z,97863.09
2022-12-16T12:55:55.026Z,97863.31
2022-12-16T12:58:42.196Z,97866.47
2022-12-16T13:01:29.420Z,97861.53
2022-12-16T13:04:25.933Z,97863.97
2022-12-16T13:07:15.484Z,97870.94
2022-12-16T13:10:00.829Z,97862.50
2022-12-16T13:12:51.483Z,97873.00
2022-12-16T13:15:58.030Z,97867.16
2022-12-16T13:18:53.840Z,97872.09
2022-12-16T13:21:57.551Z,97874.59
2022-12-16T13:24:58.569Z,97880.22
2022-12-16T13:27:46.186Z,97886.28
2022-12-16T13:30:31.799Z,97888.53
2022-12-16T13:33:49.607Z,97890.56
2022-12-16T13:36:36.981Z,97895.75
2022-12-16T13:39:41.870Z,97898.72
2022-12-16T13:43:08.861Z,97906.09
2022-12-16T13:46:18.247Z,97909.78
2022-12-16T13:49:03.966Z,97910.56
2022-12-16T13:51:55.301Z,97921.38
2022-12-16T13:54:54.664Z,97921.53
2022-12-16T13:57:43.494Z,97927.06
2022-12-16T14:00:42.886Z,97930.13
2022-12-16T14:04:03.018Z,97939.41
2022-12-16T14:06:50.441Z,97943.69
2022-12-16T14:09:57.404Z,97945.00
2022-12-16T14:13:01.196Z,97959.16
2022-12-16T14:16:05.119Z,97962.25
2022-12-16T14:19:23.874Z,97970.69
2022-12-16T14:22:20.842Z,97974.88
2022-12-16T14:25:07.180Z,97981.22
2022-12-16T14:27:54.063Z,97980.50
2022-12-16T14:30:44.513Z,97985.81
2022-12-16T14:33:46.010Z,97992.78
2022-12-16T14:36:44.913Z,97998.00
2022-12-16T14:39:39.857Z,98005.34
2022-12-16T14:42:47.647Z,98013.19
2022-12-16T14:45:56.676Z,98010.66
2022-12-16T14:48:54.757Z,98014.09
2022-12-16T14:51:57.278Z,98022.94
2022-12-16T14:54:54.187Z,98020.63
2022-12-16T14:57:45.858Z,98025.09
2022-12-16T15:00:39.621Z,98025.22
2022-12-16T15:03:37.059Z,98027.72
2022-12-16T15:06:30.650Z,98031.31
2022-12-16T15:09:23.108Z,98035.16
2022-12-16T15:12:11.507Z,98040.31
2022-12-16T15:14:59.880Z,98045.38
2022-12-16T15:18:07.502Z,98042.66
2022-12-16T15:20:56.817Z,98050.06
2022-12-16T15:23:50.141Z,98049.94
2022-12-16T15:26:42.346Z,98062.88
2022-12-16T15:29:56.027Z,98063.88
2022-12-16T15:32:44.288Z,98069.31
2022-12-16T15:35:43.648Z,98074.16
2022-12-16T15:38:30.996Z,98073.09
2022-12-16T15:41:16.597Z,98079.56
2022-12-16T15:44:05.012Z,98079.34
2022-12-16T15:46:51.840Z,98081.81
2022-12-16T15:49:51.885Z,98092.66
2022-12-16T15:52:56.649Z,98096.38
2022-12-16T15:55:48.282Z,98099.31
2022-12-16T15:58:54.028Z,98107.78
2022-12-16T16:01:43.469Z,98106.53
2022-12-16T16:04:55.337Z,98104.38
2022-12-16T16:07:43.294Z,98113.56
2022-12-16T16:10:43.590Z,98108.22
2022-12-16T16:13:29.582Z,98121.31
2022-12-16T16:16:15.485Z,98131.59
2022-12-16T16:19:02.354Z,98135.38
2022-12-16T16:21:49.263Z,98144.91
2022-12-16T16:24:35.563Z,98140.84
2022-12-16T16:27:24.472Z,98141.78
2022-12-16T16:30:09.747Z,98147.66
2022-12-16T16:32:54.937Z,98167.59
2022-12-16T16:35:40.400Z,98161.34
2022-12-16T16:38:29.482Z,98164.06
2022-12-16T16:41:14.718Z,98160.34
2022-12-16T16:44:01.015Z,98161.44
2022-12-16T16:46:59.234Z,98168.34
2022-12-16T16:49:50.234Z,98173.78
2022-12-16T16:52:40.399Z,98176.34
2022-12-16T16:55:35.346Z,98175.53
2022-12-16T16:58:45.315Z,98165.31
2022-12-16T17:01:36.473Z,98166.91
2022-12-16T17:04:22.760Z,98173.00
2022-12-16T17:07:08.078Z,98182.78
2022-12-16T17:10:01.365Z,98185.19
2022-12-16T17:12:49.135Z,98189.41
2022-12-16T17:15:41.297Z,98196.84
2022-12-16T17:18:27.198Z,98188.19
2022-12-16T17:21:13.612Z,98197.97
2022-12-16T17:23:59.410Z,98204.66
2022-12-16T17:26:45.447Z,98211.72
2022-12-16T17:29:43.935Z,98219.41
2022-12-16T17:32:30.472Z,98224.06
2022-12-16T17:35:16.800Z,98231.44
2022-12-16T17:38:03.354Z,98231.72
2022-12-16T17:40:49.014Z,98236.16
2022-12-16T17:43:34.595Z,98241.44
2022-12-16T17:46:26.459Z,98242.22
2022-12-16T17:49:17.374Z,98250.97
2022-12-16T17:52:03.172Z,98258.00
2022-12-16T17:54:48.933Z,98252.19
2022-12-16T17:57:34.497Z,98246.84
2022-12-16T18:00:20.014Z,98253.13
2022-12-16T18:03:05.609Z,98256.84
2022-12-16T18:05:51.241Z,98255.59
2022-12-16T18:08:36.656Z,98264.25
2022-12-16T18:11:22.451Z,98264.25
2022-12-16T18:14:08.233Z,98268.84
2022-12-16T18:16:53.823Z,98269.53
2022-12-16T18:19:39.579Z,98276.34
2022-12-16T18:22:25.180Z,98283.25
2022-12-16T18:25:10.838Z,98282.56
2022-12-16T18:27:56.675Z,98280.97
2022-12-16T18:30:42.066Z,98291.53
2022-12-16T18:33:29.703Z,98291.47
2022-12-16T18:36:15.020Z,98290.19
2022-12-16T18:39:00.549Z,98296.78
2022-12-16T18:41:46.168Z,98299.66
2022-12-16T18:44:33.060Z,98311.59
2022-12-16T18:47:18.924Z,98318.56
2022-12-16T18:50:04.259Z,98322.94
2022-12-16T18:52:49.669Z,98320.22
2022-12-16T18:55:35.132Z,98323.03
2022-12-16T18:58:49.825Z,98327.41
2022-12-16T19:01:29.456Z,98333.00
2022-12-16T19:04:15.699Z,98339.72
2022-12-16T19:07:01.632Z,98339.81
2022-12-16T19:09:46.942Z,98345.78
2022-12-16T19:12:32.449Z,98342.47
2022-12-16T19:15:17.897Z,98345.91
2022-12-16T19:18:16.963Z,98350.41
2022-12-16T19:21:02.245Z,98353.19
2022-12-16T19:23:47.575Z,98359.66
2022-12-16T19:26:32.907Z,98364.56
2022-12-16T19:29:18.247Z,98357.78
2022-12-16T19:32:03.376Z,98359.97
2022-12-16T19:34:48.746Z,98364.78
2022-12-16T19:37:34.111Z,98366.16
2022-12-16T19:40:19.763Z,98379.34
2022-12-16T19:43:05.236Z,98388.06
2022-12-16T19:45:50.439Z,98392.50
2022-12-16T19:48:36.993Z,98390.31
2022-12-16T19:51:24.315Z,98398.19
2022-12-16T19:54:09.601Z,98401.78
2022-12-16T20:00:00.586Z,98412.31
2022-12-16T20:02:46.139Z,98418.38
2022-12-16T20:05:31.966Z,98423.47
2022-12-16T20:08:17.483Z,98417.66
2022-12-16T20:11:02.865Z,98427.19
2022-12-16T20:13:48.461Z,98434.25
2022-12-16T20:16:33.809Z,98434.16
2022-12-16T20:19:19.504Z,98439.22
2022-12-16T20:22:07.547Z,98442.06
2022-12-16T20:24:56.528Z,98450.53
2022-12-16T20:27:42.369Z,98456.75
2022-12-16T20:30:29.459Z,98454.78
2022-12-16T20:33:34.579Z,98459.06
2022-12-16T20:36:22.996Z,98463.66
2022-12-16T20:39:08.622Z,98456.75
2022-12-16T20:41:56.206Z,98459.06
2022-12-16T20:45:00.072Z,98466.75
2022-12-16T20:47:45.393Z,98472.06
2022-12-16T20:50:30.755Z,98473.81
2022-12-16T20:53:16.045Z,98471.41
2022-12-16T20:56:01.395Z,98475.78
2022-12-16T20:58:46.850Z,98474.84
2022-12-16T21:01:32.244Z,98475.91
2022-12-16T21:04:17.857Z,98482.69
2022-12-16T21:07:03.182Z,98481.66
2022-12-16T21:09:48.715Z,98484.41
2022-12-16T21:12:33.833Z,98492.88
2022-12-16T21:15:19.537Z,98491.19
2022-12-16T21:18:04.853Z,98498.66
2022-12-16T21:20:50.378Z,98499.75
2022-12-16T21:23:37.438Z,98506.44
2022-12-16T21:26:23.668Z,98509.88
2022-12-16T21:29:26.011Z,98508.38
2022-12-16T21:32:12.120Z,98515.69
2022-12-16T21:34:57.609Z,98527.16
2022-12-16T21:37:43.582Z,98523.50
2022-12-16T21:40:29.292Z,98532.28
2022-12-16T21:43:14.577Z,98530.75
2022-12-16T21:45:59.892Z,98546.13
2022-12-16T21:48:45.098Z,98546.75
2022-12-16T21:51:30.594Z,98543.72
2022-12-16T21:54:16.204Z,98558.50
2022-12-16T21:57:01.915Z,98560.00
2022-12-16T21:59:47.427Z,98571.78
2022-12-16T22:02:32.968Z,98578.06
2022-12-16T22:05:18.479Z,98578.28
2022-12-16T22:08:04.433Z,98568.66
2022-12-16T22:10:49.914Z,98575.25
2022-12-16T22:13:35.923Z,98575.22
2022-12-16T22:16:21.690Z,98583.66
2022-12-16T22:19:07.038Z,98588.19
2022-12-16T22:21:52.967Z,98586.63
2022-12-16T22:24:38.798Z,98592.03
2022-12-16T22:27:24.192Z,98594.72
2022-12-16T22:30:10.052Z,98597.50
2022-12-16T22:32:56.582Z,98607.97
2022-12-16T22:35:42.066Z,98610.63
2022-12-16T22:38:27.551Z,98614.06
2022-12-16T22:41:17.948Z,98614.22
2022-12-16T22:44:04.396Z,98612.72
2022-12-16T22:46:50.202Z,98611.88
2022-12-16T22:49:35.825Z,98608.47
2022-12-16T22:52:21.699Z,98618.84
2022-12-16T22:55:07.051Z,98618.19
2022-12-16T22:57:53.365Z,98630.31
2022-12-16T23:00:39.765Z,98636.47
2022-12-16T23:03:25.361Z,98633.06
2022-12-16T23:06:11.174Z,98625.09
2022-12-16T23:08:56.772Z,98642.28
2022-12-16T23:11:56.630Z,98642.47
2022-12-16T23:14:43.276Z,98652.72
2022-12-16T23:17:32.088Z,98654.53
2022-12-16T23:20:17.366Z,98665.88
2022-12-16T23:23:02.663Z,98663.19
2022-12-16T23:25:48.356Z,98662.53
2022-12-16T23:28:33.722Z,98664.28
2022-12-16T23:31:19.312Z,98666.13
2022-12-16T23:34:04.793Z,98671.34
2022-12-16T23:36:50.082Z,98668.88
2022-12-16T23:39:35.591Z,98667.19
2022-12-16T23:42:21.236Z,98678.34
2022-12-16T23:45:06.664Z,98677.50
2022-12-16T23:47:52.034Z,98672.41
2022-12-16T23:50:37.389Z,98674.97
2022-12-16T23:53:25.678Z,98669.03
2022-12-16T23:56:19.388Z,98679.31
2022-12-16T23:59:08.455Z,98673.38
